sensor_id;sensor_type;location;lat;lon;timestamp;pressure;altitude;pressure_sealevel;temperature;humidity
79309;BME280;68767;53.078;7.386;2023-04-01T00:01:06;99365.97;;;8.88;98.00
79309;BME280;68767;53.078;7.386;2023-04-01T00:03:33;99378.25;;;8.89;98.16
79309;BME280;68767;53.078;7.386;2023-04-01T00:06:00;99369.88;;;8.91;97.68
79309;BME280;68767;53.078;7.386;2023-04-01T00:08:28;99366.06;;;8.92;97.74
79309;BME280;68767;53.078;7.386;2023-04-01T00:10:55;99373.31;;;8.91;98.04
79309;BME280;68767;53.078;7.386;2023-04-01T00:13:24;99370.66;;;8.91;97.93
79309;BME280;68767;53.078;7.386;2023-04-01T00:15:54;99368.75;;;8.92;97.59
79309;BME280;68767;53.078;7.386;2023-04-01T00:18:22;99372.53;;;8.91;97.71
79309;BME280;68767;53.078;7.386;2023-04-01T00:20:51;99372.88;;;8.89;97.24
79309;BME280;68767;53.078;7.386;2023-04-01T00:23:19;99372.00;;;8.85;98.25
79309;BME280;68767;53.078;7.386;2023-04-01T00:25:47;99369.88;;;8.91;97.57
79309;BME280;68767;53.078;7.386;2023-04-01T00:28:18;99373.66;;;8.90;97.51
79309;BME280;68767;53.078;7.386;2023-04-01T00:30:46;99377.03;;;8.87;97.87
79309;BME280;68767;53.078;7.386;2023-04-01T00:33:13;99365.19;;;8.88;97.84
79309;BME280;68767;53.078;7.386;2023-04-01T00:35:39;99367.75;;;8.84;98.03
79309;BME280;68767;53.078;7.386;2023-04-01T00:38:07;99364.06;;;8.89;97.48
79309;BME280;68767;53.078;7.386;2023-04-01T00:40:37;99365.63;;;8.90;97.63
79309;BME280;68767;53.078;7.386;2023-04-01T00:43:14;99359.94;;;8.91;97.30
79309;BME280;68767;53.078;7.386;2023-04-01T00:45:42;99363.97;;;8.85;97.61
79309;BME280;68767;53.078;7.386;2023-04-01T00:48:23;99364.78;;;8.86;97.41
79309;BME280;68767;53.078;7.386;2023-04-01T00:51:04;99367.44;;;8.86;97.71
79309;BME280;68767;53.078;7.386;2023-04-01T00:53:34;99365.41;;;8.95;97.71
79309;BME280;68767;53.078;7.386;2023-04-01T00:56:07;99361.16;;;8.94;97.09
79309;BME280;68767;53.078;7.386;2023-04-01T00:58:40;99364.41;;;8.87;97.55
79309;BME280;68767;53.078;7.386;2023-04-01T01:01:08;99364.84;;;8.89;98.22
79309;BME280;68767;53.078;7.386;2023-04-01T01:03:36;99367.31;;;8.94;97.44
79309;BME280;68767;53.078;7.386;2023-04-01T01:09:25;99363.03;;;8.93;97.83
79309;BME280;68767;53.078;7.386;2023-04-01T01:12:20;99373.53;;;8.98;97.05
79309;BME280;68767;53.078;7.386;2023-04-01T01:26:06;99358.28;;;8.87;98.11
79309;BME280;68767;53.078;7.386;2023-04-01T01:31:44;99362.53;;;8.88;98.16
79309;BME280;68767;53.078;7.386;2023-04-01T01:34:22;99361.41;;;8.89;97.93
79309;BME280;68767;53.078;7.386;2023-04-01T01:36:59;99359.94;;;8.91;98.16
79309;BME280;68767;53.078;7.386;2023-04-01T01:39:30;99361.84;;;8.91;97.51
79309;BME280;68767;53.078;7.386;2023-04-01T01:42:03;99360.72;;;8.92;97.52
79309;BME280;68767;53.078;7.386;2023-04-01T01:44:31;99365.63;;;8.90;97.51
79309;BME280;68767;53.078;7.386;2023-04-01T01:46:59;99363.31;;;8.88;97.80
79309;BME280;68767;53.078;7.386;2023-04-01T01:49:27;99362.19;;;8.89;97.76
79309;BME280;68767;53.078;7.386;2023-04-01T01:51:57;99365.97;;;8.88;98.10
79309;BME280;68767;53.078;7.386;2023-04-01T01:54:24;99363.97;;;8.85;97.87
79309;BME280;68767;53.078;7.386;2023-04-01T01:56:57;99371.00;;;8.90;97.73
79309;BME280;68767;53.078;7.386;2023-04-01T01:59:26;99373.81;;;8.81;97.70
79309;BME280;68767;53.078;7.386;2023-04-01T02:01:55;99369.78;;;8.87;97.88
79309;BME280;68767;53.078;7.386;2023-04-01T02:04:23;99371.69;;;8.87;98.00
79309;BME280;68767;53.078;7.386;2023-04-01T02:06:58;99370.22;;;8.89;97.59
79309;BME280;68767;53.078;7.386;2023-04-01T02:09:26;99373.66;;;8.90;97.71
79309;BME280;68767;53.078;7.386;2023-04-01T02:12:04;99370.56;;;8.88;97.82
79309;BME280;68767;53.078;7.386;2023-04-01T02:14:52;99373.25;;;8.88;97.85
79309;BME280;68767;53.078;7.386;2023-04-01T02:17:24;99382.06;;;8.88;97.65
79309;BME280;68767;53.078;7.386;2023-04-01T02:19:56;99378.81;;;8.83;98.17
79309;BME280;68767;53.078;7.386;2023-04-01T02:22:26;99368.31;;;8.90;97.39
79309;BME280;68767;53.078;7.386;2023-04-01T02:25:00;99376.00;;;8.91;97.00
79309;BME280;68767;53.078;7.386;2023-04-01T02:27:30;99376.69;;;8.88;97.24
79309;BME280;68767;53.078;7.386;2023-04-01T02:29:57;99377.34;;;8.85;97.74
79309;BME280;68767;53.078;7.386;2023-04-01T02:32:25;99381.78;;;8.93;96.64
79309;BME280;68767;53.078;7.386;2023-04-01T02:34:53;99381.16;;;8.84;97.40
79309;BME280;68767;53.078;7.386;2023-04-01T02:37:20;99378.94;;;8.86;97.46
79309;BME280;68767;53.078;7.386;2023-04-01T02:39:47;99383.41;;;8.82;97.56
79309;BME280;68767;53.078;7.386;2023-04-01T02:42:14;99388.75;;;8.82;98.03
79309;BME280;68767;53.078;7.386;2023-04-01T02:44:41;99380.84;;;8.86;97.28
79309;BME280;68767;53.078;7.386;2023-04-01T02:47:07;99392.13;;;8.79;98.06
79309;BME280;68767;53.078;7.386;2023-04-01T02:49:34;99387.75;;;8.87;97.63
79309;BME280;68767;53.078;7.386;2023-04-01T02:52:01;99388.88;;;8.86;97.51
79309;BME280;68767;53.078;7.386;2023-04-01T02:54:28;99386.63;;;8.88;97.03
79309;BME280;68767;53.078;7.386;2023-04-01T02:56:54;99399.03;;;8.80;97.85
79309;BME280;68767;53.078;7.386;2023-04-01T02:59:21;99400.69;;;8.85;97.31
79309;BME280;68767;53.078;7.386;2023-04-01T03:01:48;99396.91;;;8.86;97.74
79309;BME280;68767;53.078;7.386;2023-04-01T03:04:15;99401.13;;;8.87;97.33
79309;BME280;68767;53.078;7.386;2023-04-01T03:06:42;99401.47;;;8.85;97.56
79309;BME280;68767;53.078;7.386;2023-04-01T03:09:08;99407.06;;;8.80;97.65
79309;BME280;68767;53.078;7.386;2023-04-01T03:11:35;99406.03;;;8.85;97.49
79309;BME280;68767;53.078;7.386;2023-04-01T03:14:02;99404.81;;;8.82;97.25
79309;BME280;68767;53.078;7.386;2023-04-01T03:16:28;99407.75;;;8.77;98.04
79309;BME280;68767;53.078;7.386;2023-04-01T03:18:55;99408.97;;;8.80;97.62
79309;BME280;68767;53.078;7.386;2023-04-01T03:21:25;99402.16;;;8.82;97.73
79309;BME280;68767;53.078;7.386;2023-04-01T03:23:52;99402.50;;;8.81;97.96
79309;BME280;68767;53.078;7.386;2023-04-01T03:26:19;99413.13;;;8.77;97.74
79309;BME280;68767;53.078;7.386;2023-04-01T03:28:46;99414.22;;;8.76;97.52
79309;BME280;68767;53.078;7.386;2023-04-01T03:31:13;99411.22;;;8.78;98.16
79309;BME280;68767;53.078;7.386;2023-04-01T03:33:40;99413.91;;;8.78;97.99
79309;BME280;68767;53.078;7.386;2023-04-01T03:36:07;99419.91;;;8.75;98.07
79309;BME280;68767;53.078;7.386;2023-04-01T03:38:34;99417.66;;;8.77;98.18
79309;BME280;68767;53.078;7.386;2023-04-01T03:41:01;99420.03;;;8.78;97.82
79309;BME280;68767;53.078;7.386;2023-04-01T03:43:28;99424.69;;;8.81;97.74
79309;BME280;68767;53.078;7.386;2023-04-01T03:45:55;99416.56;;;8.78;97.46
79309;BME280;68767;53.078;7.386;2023-04-01T03:48:25;99420.03;;;8.78;97.75
79309;BME280;68767;53.078;7.386;2023-04-01T03:50:52;99422.59;;;8.75;97.88
79309;BME280;68767;53.078;7.386;2023-04-01T03:53:19;99431.41;;;8.75;97.84
79309;BME280;68767;53.078;7.386;2023-04-01T03:55:46;99424.47;;;8.74;97.84
79309;BME280;68767;53.078;7.386;2023-04-01T03:58:13;99435.63;;;8.76;97.04
79309;BME280;68767;53.078;7.386;2023-04-01T04:00:40;99432.88;;;8.72;97.57
79309;BME280;68767;53.078;7.386;2023-04-01T04:03:07;99433.56;;;8.69;97.91
79309;BME280;68767;53.078;7.386;2023-04-01T04:05:34;99441.13;;;8.67;97.81
79309;BME280;68767;53.078;7.386;2023-04-01T04:08:01;99434.63;;;8.68;97.72
79309;BME280;68767;53.078;7.386;2023-04-01T04:10:29;99441.13;;;8.67;97.80
79309;BME280;68767;53.078;7.386;2023-04-01T04:12:56;99440.47;;;8.70;98.12
79309;BME280;68767;53.078;7.386;2023-04-01T04:15:23;99436.53;;;8.68;97.95
79309;BME280;68767;53.078;7.386;2023-04-01T04:17:49;99444.78;;;8.75;97.74
79309;BME280;68767;53.078;7.386;2023-04-01T04:20:16;99445.13;;;8.73;97.47
79309;BME280;68767;53.078;7.386;2023-04-01T04:22:43;99447.81;;;8.73;97.88
79309;BME280;68767;53.078;7.386;2023-04-01T04:25:10;99451.59;;;8.72;97.93
79309;BME280;68767;53.078;7.386;2023-04-01T04:27:36;99453.06;;;8.70;98.27
79309;BME280;68767;53.078;7.386;2023-04-01T04:30:05;99456.28;;;8.76;97.63
79309;BME280;68767;53.078;7.386;2023-04-01T04:32:32;99453.16;;;8.73;97.32
79309;BME280;68767;53.078;7.386;2023-04-01T04:34:59;99450.06;;;8.71;97.57
79309;BME280;68767;53.078;7.386;2023-04-01T04:37:25;99456.19;;;8.72;98.14
79309;BME280;68767;53.078;7.386;2023-04-01T04:39:52;99462.53;;;8.80;97.57
79309;BME280;68767;53.078;7.386;2023-04-01T04:42:19;99463.66;;;8.79;97.34
79309;BME280;68767;53.078;7.386;2023-04-01T04:44:46;99469.66;;;8.76;97.91
79309;BME280;68767;53.078;7.386;2023-04-01T04:47:12;99463.19;;;8.77;97.86
79309;BME280;68767;53.078;7.386;2023-04-01T04:49:39;99475.00;;;8.76;97.96
79309;BME280;68767;53.078;7.386;2023-04-01T04:52:06;99477.81;;;8.79;97.43
79309;BME280;68767;53.078;7.386;2023-04-01T04:54:33;99480.94;;;8.81;97.23
79309;BME280;68767;53.078;7.386;2023-04-01T04:57:00;99478.47;;;8.76;97.53
79309;BME280;68767;53.078;7.386;2023-04-01T04:59:26;99489.00;;;8.69;98.15
79309;BME280;68767;53.078;7.386;2023-04-01T05:01:53;99490.88;;;8.68;98.10
79309;BME280;68767;53.078;7.386;2023-04-01T05:04:20;99487.19;;;8.73;98.08
79309;BME280;68767;53.078;7.386;2023-04-01T05:06:47;99495.66;;;8.75;97.41
79309;BME280;68767;53.078;7.386;2023-04-01T05:09:14;99498.81;;;8.77;97.38
79309;BME280;68767;53.078;7.386;2023-04-01T05:11:41;99492.97;;;8.75;97.93
79309;BME280;68767;53.078;7.386;2023-04-01T05:14:15;99505.16;;;8.72;97.86
79309;BME280;68767;53.078;7.386;2023-04-01T05:16:42;99508.38;;;8.78;97.40
79309;BME280;68767;53.078;7.386;2023-04-01T05:19:09;99507.63;;;8.78;97.39
79309;BME280;68767;53.078;7.386;2023-04-01T05:21:36;99508.47;;;8.82;97.23
79309;BME280;68767;53.078;7.386;2023-04-01T05:24:02;99504.34;;;8.84;97.22
79309;BME280;68767;53.078;7.386;2023-04-01T05:26:29;99512.84;;;8.86;97.39
79309;BME280;68767;53.078;7.386;2023-04-01T05:28:56;99512.38;;;8.84;97.47
79309;BME280;68767;53.078;7.386;2023-04-01T05:31:23;99510.59;;;8.88;97.41
79309;BME280;68767;53.078;7.386;2023-04-01T05:33:50;99523.88;;;8.97;96.71
79309;BME280;68767;53.078;7.386;2023-04-01T05:36:17;99518.28;;;8.90;97.24
79309;BME280;68767;53.078;7.386;2023-04-01T05:38:44;99520.75;;;8.95;96.40
79309;BME280;68767;53.078;7.386;2023-04-01T05:41:13;99522.75;;;8.98;96.90
79309;BME280;68767;53.078;7.386;2023-04-01T05:43:41;99527.97;;;9.07;96.59
79309;BME280;68767;53.078;7.386;2023-04-01T05:46:08;99538.34;;;9.08;96.07
79309;BME280;68767;53.078;7.386;2023-04-01T05:48:35;99530.41;;;9.12;96.51
79309;BME280;68767;53.078;7.386;2023-04-01T05:51:03;99536.56;;;9.12;96.73
79309;BME280;68767;53.078;7.386;2023-04-01T05:53:30;99538.66;;;9.19;95.90
79309;BME280;68767;53.078;7.386;2023-04-01T05:55:57;99539.44;;;9.19;96.80
79309;BME280;68767;53.078;7.386;2023-04-01T05:58:27;99544.13;;;9.22;96.69
79309;BME280;68767;53.078;7.386;2023-04-01T06:01:02;99548.34;;;9.23;97.08
79309;BME280;68767;53.078;7.386;2023-04-01T06:03:37;99542.97;;;9.36;95.66
79309;BME280;68767;53.078;7.386;2023-04-01T06:06:08;99551.19;;;9.43;95.56
79309;BME280;68767;53.078;7.386;2023-04-01T06:08:40;99551.53;;;9.41;96.13
79309;BME280;68767;53.078;7.386;2023-04-01T06:11:19;99547.41;;;9.44;96.14
79309;BME280;68767;53.078;7.386;2023-04-01T06:25:12;99571.19;;;9.45;96.29
79309;BME280;68767;53.078;7.386;2023-04-01T06:38:48;99586.59;;;9.48;95.62
79309;BME280;68767;53.078;7.386;2023-04-01T06:44:16;99601.03;;;9.44;95.46
79309;BME280;68767;53.078;7.386;2023-04-01T06:46:51;99604.63;;;9.36;95.51
79309;BME280;68767;53.078;7.386;2023-04-01T06:49:37;99598.56;;;9.39;95.02
79309;BME280;68767;53.078;7.386;2023-04-01T06:52:32;99605.63;;;9.43;96.58
79309;BME280;68767;53.078;7.386;2023-04-01T06:57:45;99618.75;;;9.48;94.64
79309;BME280;68767;53.078;7.386;2023-04-01T07:00:24;99613.41;;;9.48;95.22
79309;BME280;68767;53.078;7.386;2023-04-01T07:03:10;99618.75;;;9.48;94.93
79309;BME280;68767;53.078;7.386;2023-04-01T07:05:42;99613.75;;;9.47;96.22
79309;BME280;68767;53.078;7.386;2023-04-01T07:08:14;99623.00;;;9.49;96.32
79309;BME280;68767;53.078;7.386;2023-04-01T07:10:56;99628.13;;;9.54;94.32
79309;BME280;68767;53.078;7.386;2023-04-01T07:13:29;99631.47;;;9.51;96.19
79309;BME280;68767;53.078;7.386;2023-04-01T07:18:41;99643.88;;;9.56;95.83
79309;BME280;68767;53.078;7.386;2023-04-01T07:21:38;99647.69;;;9.43;95.52
79309;BME280;68767;53.078;7.386;2023-04-01T07:24:16;99644.44;;;9.49;95.20
79309;BME280;68767;53.078;7.386;2023-04-01T07:26:54;99648.38;;;9.52;95.59
79309;BME280;68767;53.078;7.386;2023-04-01T07:29:22;99647.56;;;9.51;95.61
79309;BME280;68767;53.078;7.386;2023-04-01T07:40:04;99669.00;;;9.64;94.97
79309;BME280;68767;53.078;7.386;2023-04-01T07:43:07;99668.66;;;9.65;94.73
79309;BME280;68767;53.078;7.386;2023-04-01T07:48:49;99685.66;;;9.57;95.82
79309;BME280;68767;53.078;7.386;2023-04-01T07:54:08;99687.56;;;9.56;94.11
79309;BME280;68767;53.078;7.386;2023-04-01T08:02:13;99704.44;;;9.45;95.38
79309;BME280;68767;53.078;7.386;2023-04-01T08:05:04;99698.41;;;9.60;95.52
79309;BME280;68767;53.078;7.386;2023-04-01T08:10:22;99716.31;;;9.84;94.43
79309;BME280;68767;53.078;7.386;2023-04-01T08:21:07;99725.97;;;10.13;93.75
79309;BME280;68767;53.078;7.386;2023-04-01T08:23:40;99730.81;;;10.07;92.78
79309;BME280;68767;53.078;7.386;2023-04-01T08:26:32;99740.22;;;10.01;93.00
79309;BME280;68767;53.078;7.386;2023-04-01T08:29:07;99739.25;;;9.94;92.08
79309;BME280;68767;53.078;7.386;2023-04-01T08:34:20;99738.13;;;9.95;92.59
79309;BME280;68767;53.078;7.386;2023-04-01T08:37:03;99741.94;;;9.81;92.11
79309;BME280;68767;53.078;7.386;2023-04-01T08:40:02;99756.56;;;9.84;93.40
79309;BME280;68767;53.078;7.386;2023-04-01T08:43:04;99759.72;;;9.86;94.29
79309;BME280;68767;53.078;7.386;2023-04-01T08:56:53;99766.19;;;10.37;90.72
79309;BME280;68767;53.078;7.386;2023-04-01T09:16:07;99798.63;;;10.32;93.43
79309;BME280;68767;53.078;7.386;2023-04-01T09:22:33;99798.47;;;10.53;91.11
79309;BME280;68767;53.078;7.386;2023-04-01T09:27:29;99809.63;;;10.67;89.10
79309;BME280;68767;53.078;7.386;2023-04-01T09:30:24;99811.63;;;10.58;89.19
79309;BME280;68767;53.078;7.386;2023-04-01T09:41:32;99840.69;;;10.96;88.87
79309;BME280;68767;53.078;7.386;2023-04-01T09:44:21;99840.50;;;10.89;89.81
79309;BME280;68767;53.078;7.386;2023-04-01T09:47:21;99842.97;;;10.94;87.35
79309;BME280;68767;53.078;7.386;2023-04-01T09:58:35;99881.22;;;9.87;91.84
79309;BME280;68767;53.078;7.386;2023-04-01T10:09:57;99903.81;;;9.07;93.96
79309;BME280;68767;53.078;7.386;2023-04-01T10:29:18;99919.28;;;9.55;91.42
79309;BME280;68767;53.078;7.386;2023-04-01T10:43:40;99940.22;;;9.29;92.51
79309;BME280;68767;53.078;7.386;2023-04-01T10:46:21;99943.38;;;9.43;93.10
79309;BME280;68767;53.078;7.386;2023-04-01T10:54:36;99947.47;;;9.28;92.71
79309;BME280;68767;53.078;7.386;2023-04-01T10:57:56;99956.22;;;9.17;91.26
79309;BME280;68767;53.078;7.386;2023-04-01T11:32:09;100009.75;;;8.84;92.64
79309;BME280;68767;53.078;7.386;2023-04-01T11:34:55;100023.34;;;8.79;92.82
79309;BME280;68767;53.078;7.386;2023-04-01T11:48:44;100034.41;;;8.98;90.07
79309;BME280;68767;53.078;7.386;2023-04-01T11:57:12;100063.81;;;9.07;89.89
79309;BME280;68767;53.078;7.386;2023-04-01T12:02:33;100072.03;;;8.72;91.45
79309;BME280;68767;53.078;7.386;2023-04-01T12:06:08;100080.13;;;8.63;92.48
79309;BME280;68767;53.078;7.386;2023-04-01T12:19:23;100102.69;;;8.54;90.41
79309;BME280;68767;53.078;7.386;2023-04-01T12:24:32;100115.47;;;8.39;90.91
79309;BME280;68767;53.078;7.386;2023-04-01T12:27:23;100127.44;;;8.33;90.93
79309;BME280;68767;53.078;7.386;2023-04-01T12:41:06;100142.09;;;8.36;90.54
79309;BME280;68767;53.078;7.386;2023-04-01T12:43:42;100148.38;;;8.31;90.18
79309;BME280;68767;53.078;7.386;2023-04-01T12:46:21;100161.13;;;8.26;89.75
79309;BME280;68767;53.078;7.386;2023-04-01T13:00:03;100172.78;;;8.38;90.47
79309;BME280;68767;53.078;7.386;2023-04-01T13:08:47;100197.31;;;8.32;89.76
79309;BME280;68767;53.078;7.386;2023-04-01T13:11:30;100210.41;;;8.25;90.36
79309;BME280;68767;53.078;7.386;2023-04-01T13:14:16;100217.66;;;8.24;91.69
79309;BME280;68767;53.078;7.386;2023-04-01T13:19:49;100224.75;;;8.20;89.54
79309;BME280;68767;53.078;7.386;2023-04-01T13:28:06;100230.88;;;8.21;88.34
79309;BME280;68767;53.078;7.386;2023-04-01T13:39:00;100254.47;;;8.18;87.81
79309;BME280;68767;53.078;7.386;2023-04-01T13:50:16;100268.66;;;8.28;89.65
79309;BME280;68767;53.078;7.386;2023-04-01T13:53:05;100279.19;;;8.24;87.58
79309;BME280;68767;53.078;7.386;2023-04-01T14:06:16;100297.44;;;8.05;89.18
79309;BME280;68767;53.078;7.386;2023-04-01T14:11:31;100313.47;;;7.96;90.64
79309;BME280;68767;53.078;7.386;2023-04-01T14:14:11;100314.72;;;7.90;89.93
79309;BME280;68767;53.078;7.386;2023-04-01T14:24:57;100332.19;;;7.87;90.87
79309;BME280;68767;53.078;7.386;2023-04-01T14:30:31;100338.31;;;7.88;88.96
79309;BME280;68767;53.078;7.386;2023-04-01T14:33:12;100342.22;;;7.82;90.08
79309;BME280;68767;53.078;7.386;2023-04-01T14:51:02;100377.91;;;7.77;90.16
79309;BME280;68767;53.078;7.386;2023-04-01T14:53:36;100395.69;;;7.82;88.64
79309;BME280;68767;53.078;7.386;2023-04-01T14:56:05;100390.34;;;7.82;88.75
79309;BME280;68767;53.078;7.386;2023-04-01T14:58:57;100404.81;;;7.81;87.39
79309;BME280;68767;53.078;7.386;2023-04-01T15:04:53;100409.53;;;7.84;88.89
79309;BME280;68767;53.078;7.386;2023-04-01T15:16:19;100440.59;;;7.63;87.85
79309;BME280;68767;53.078;7.386;2023-04-01T15:27:22;100462.59;;;7.59;88.18
79309;BME280;68767;53.078;7.386;2023-04-01T15:30:17;100481.88;;;7.48;87.90
79309;BME280;68767;53.078;7.386;2023-04-01T15:33:09;100473.66;;;7.44;88.27
79309;BME280;68767;53.078;7.386;2023-04-01T15:38:52;100488.19;;;7.29;87.34
79309;BME280;68767;53.078;7.386;2023-04-01T15:41:37;100495.53;;;7.24;88.05
79309;BME280;68767;53.078;7.386;2023-04-01T15:47:34;100503.28;;;7.12;88.11
79309;BME280;68767;53.078;7.386;2023-04-01T16:03:57;100540.41;;;6.99;88.05
79309;BME280;68767;53.078;7.386;2023-04-01T16:06:53;100547.53;;;7.04;89.23
79309;BME280;68767;53.078;7.386;2023-04-01T16:09:22;100553.84;;;6.94;87.60
79309;BME280;68767;53.078;7.386;2023-04-01T16:19:56;100576.53;;;6.69;87.21
79309;BME280;68767;53.078;7.386;2023-04-01T16:22:35;100579.59;;;6.76;88.05
79309;BME280;68767;53.078;7.386;2023-04-01T16:30:39;100597.38;;;6.67;88.58
79309;BME280;68767;53.078;7.386;2023-04-01T16:33:14;100601.53;;;6.60;88.21
79309;BME280;68767;53.078;7.386;2023-04-01T16:44:22;100639.16;;;6.44;89.86
79309;BME280;68767;53.078;7.386;2023-04-01T16:46:52;100650.72;;;6.40;90.70
79309;BME280;68767;53.078;7.386;2023-04-01T16:50:05;100651.97;;;6.29;90.09
79309;BME280;68767;53.078;7.386;2023-04-01T16:52:42;100651.00;;;6.25;89.35
79309;BME280;68767;53.078;7.386;2023-04-01T16:55:21;100661.59;;;6.11;89.46
79309;BME280;68767;53.078;7.386;2023-04-01T16:57:56;100664.03;;;6.26;89.76
79309;BME280;68767;53.078;7.386;2023-04-01T17:00:30;100675.00;;;6.25;89.85
79309;BME280;68767;53.078;7.386;2023-04-01T17:03:22;100688.63;;;6.23;89.94
79309;BME280;68767;53.078;7.386;2023-04-01T17:05:55;100694.41;;;6.11;89.10
79309;BME280;68767;53.078;7.386;2023-04-01T17:11:24;100708.31;;;6.08;90.71
79309;BME280;68767;53.078;7.386;2023-04-01T17:28:05;100745.63;;;5.89;90.57
79309;BME280;68767;53.078;7.386;2023-04-01T17:30:41;100758.22;;;5.84;90.54
79309;BME280;68767;53.078;7.386;2023-04-01T17:38:54;100777.22;;;5.77;90.26
79309;BME280;68767;53.078;7.386;2023-04-01T17:41:47;100779.72;;;5.69;89.57
79309;BME280;68767;53.078;7.386;2023-04-01T17:54:59;100811.44;;;5.70;90.17
79309;BME280;68767;53.078;7.386;2023-04-01T17:57:46;100810.09;;;5.73;89.60
79309;BME280;68767;53.078;7.386;2023-04-01T18:00:24;100814.63;;;5.72;91.02
79309;BME280;68767;53.078;7.386;2023-04-01T18:03:13;100821.53;;;5.73;91.41
79309;BME280;68767;53.078;7.386;2023-04-01T18:22:01;100878.00;;;5.51;90.45
79309;BME280;68767;53.078;7.386;2023-04-01T18:24:35;100882.56;;;5.46;90.67
79309;BME280;68767;53.078;7.386;2023-04-01T18:27:15;100893.81;;;5.43;90.25
79309;BME280;68767;53.078;7.386;2023-04-01T18:29:53;100898.91;;;5.39;90.33
79309;BME280;68767;53.078;7.386;2023-04-01T18:34:57;100910.06;;;5.41;90.60
79309;BME280;68767;53.078;7.386;2023-04-01T18:37:38;100912.47;;;5.38;90.63
79309;BME280;68767;53.078;7.386;2023-04-01T18:48:33;100939.47;;;5.31;89.87
79309;BME280;68767;53.078;7.386;2023-04-01T18:51:39;100946.38;;;5.32;91.25
79309;BME280;68767;53.078;7.386;2023-04-01T18:54:15;100957.84;;;5.27;89.59
79309;BME280;68767;53.078;7.386;2023-04-01T18:56:46;100959.50;;;5.23;89.52
79309;BME280;68767;53.078;7.386;2023-04-01T18:59:45;100958.16;;;5.21;89.46
79309;BME280;68767;53.078;7.386;2023-04-01T19:02:32;100980.56;;;5.20;88.99
79309;BME280;68767;53.078;7.386;2023-04-01T19:05:11;100973.63;;;5.24;89.11
79309;BME280;68767;53.078;7.386;2023-04-01T19:13:06;100992.84;;;5.16;89.38
79309;BME280;68767;53.078;7.386;2023-04-01T19:21:37;101024.88;;;5.05;88.56
79309;BME280;68767;53.078;7.386;2023-04-01T19:26:51;101032.88;;;5.00;88.72
79309;BME280;68767;53.078;7.386;2023-04-01T20:02:30;101120.00;;;4.79;88.59
79309;BME280;68767;53.078;7.386;2023-04-01T20:05:05;101130.91;;;4.78;89.08
79309;BME280;68767;53.078;7.386;2023-04-01T20:07:48;101139.16;;;4.71;88.14
79309;BME280;68767;53.078;7.386;2023-04-01T20:10:29;101137.34;;;4.62;87.88
79309;BME280;68767;53.078;7.386;2023-04-01T20:13:19;101144.25;;;4.63;88.30
79309;BME280;68767;53.078;7.386;2023-04-01T20:15:59;101149.31;;;4.59;87.51
79309;BME280;68767;53.078;7.386;2023-04-01T20:19:00;101147.47;;;4.60;87.78
79309;BME280;68767;53.078;7.386;2023-04-01T20:21:45;101153.84;;;4.59;87.66
79309;BME280;68767;53.078;7.386;2023-04-01T20:26:47;101173.78;;;4.61;88.75
79309;BME280;68767;53.078;7.386;2023-04-01T20:32:40;101187.13;;;4.56;88.14
79309;BME280;68767;53.078;7.386;2023-04-01T20:35:35;101189.78;;;4.51;87.27
79309;BME280;68767;53.078;7.386;2023-04-01T20:40:52;101194.03;;;4.57;88.48
79309;BME280;68767;53.078;7.386;2023-04-01T20:46:20;101216.38;;;4.51;87.90
79309;BME280;68767;53.078;7.386;2023-04-01T21:03:11;101254.16;;;4.48;87.34
79309;BME280;68767;53.078;7.386;2023-04-01T21:11:01;101265.84;;;4.32;86.69
79309;BME280;68767;53.078;7.386;2023-04-01T21:13:50;101271.16;;;4.37;88.39
79309;BME280;68767;53.078;7.386;2023-04-01T21:16:50;101271.69;;;4.34;86.86
79309;BME280;68767;53.078;7.386;2023-04-01T21:36:15;101313.09;;;4.04;86.65
79309;BME280;68767;53.078;7.386;2023-04-01T21:38:59;101317.09;;;4.02;86.69
79309;BME280;68767;53.078;7.386;2023-04-01T21:44:37;101327.97;;;3.95;87.68
79309;BME280;68767;53.078;7.386;2023-04-01T21:47:40;101335.63;;;3.86;88.11
79309;BME280;68767;53.078;7.386;2023-04-01T21:53:14;101354.19;;;3.76;86.47
79309;BME280;68767;53.078;7.386;2023-04-01T21:58:50;101356.59;;;3.73;87.02
79309;BME280;68767;53.078;7.386;2023-04-01T22:01:32;101368.25;;;3.72;85.71
79309;BME280;68767;53.078;7.386;2023-04-01T22:07:09;101374.03;;;3.63;84.73
79309;BME280;68767;53.078;7.386;2023-04-01T22:12:30;101387.06;;;3.60;84.27
79309;BME280;68767;53.078;7.386;2023-04-01T22:15:29;101391.56;;;3.59;86.20
79309;BME280;68767;53.078;7.386;2023-04-01T22:41:19;101448.81;;;3.40;84.90
79309;BME280;68767;53.078;7.386;2023-04-01T22:43:50;101447.44;;;3.37;83.29
79309;BME280;68767;53.078;7.386;2023-04-01T22:46:23;101452.50;;;3.39;83.33
79309;BME280;68767;53.078;7.386;2023-04-01T22:51:51;101460.72;;;3.37;82.86
79309;BME280;68767;53.078;7.386;2023-04-01T22:54:48;101473.19;;;3.37;83.78
79309;BME280;68767;53.078;7.386;2023-04-01T22:57:35;101471.34;;;3.37;83.71
79309;BME280;68767;53.078;7.386;2023-04-01T23:00:16;101481.69;;;3.34;83.15
79309;BME280;68767;53.078;7.386;2023-04-01T23:05:17;101477.13;;;3.29;83.17
79309;BME280;68767;53.078;7.386;2023-04-01T23:07:53;101495.44;;;3.31;83.18
79309;BME280;68767;53.078;7.386;2023-04-01T23:10:39;101504.72;;;3.28;82.20
79309;BME280;68767;53.078;7.386;2023-04-01T23:13:14;101506.28;;;3.24;84.97
79309;BME280;68767;53.078;7.386;2023-04-01T23:15:43;101510.00;;;3.23;83.51
79309;BME280;68767;53.078;7.386;2023-04-01T23:23:52;101526.66;;;3.19;83.10
79309;BME280;68767;53.078;7.386;2023-04-01T23:28:57;101526.88;;;3.12;83.21
79309;BME280;68767;53.078;7.386;2023-04-01T23:31:30;101546.44;;;3.06;83.81
79309;BME280;68767;53.078;7.386;2023-04-01T23:34:24;101548.53;;;3.04;82.11
79309;BME280;68767;53.078;7.386;2023-04-01T23:36:50;101554.78;;;2.93;82.69
79309;BME280;68767;53.078;7.386;2023-04-01T23:39:52;101555.53;;;2.88;82.32
79309;BME280;68767;53.078;7.386;2023-04-01T23:42:23;101569.03;;;2.87;83.24
79309;BME280;68767;53.078;7.386;2023-04-01T23:44:54;101564.97;;;2.79;81.62
79309;BME280;68767;53.078;7.386;2023-04-01T23:47:24;101576.34;;;2.74;82.15
79309;BME280;68767;53.078;7.386;2023-04-01T23:49:58;101580.22;;;2.67;81.94